createdAt,value
2023-03-24T00:00:48.210Z,48744.06
2023-03-24T00:03:17.875Z,48746.03
2023-03-24T00:05:44.794Z,48738.19
2023-03-24T00:08:11.296Z,48769.53
2023-03-24T00:10:37.704Z,48773.47
2023-03-24T00:13:05.020Z,48777.38
2023-03-24T00:15:31.518Z,48759.75
2023-03-24T00:17:58.195Z,48785.22
2023-03-24T00:20:26.347Z,48753.88
2023-03-24T00:22:58.540Z,48773.47
2023-03-24T00:25:28.388Z,48777.38
2023-03-24T00:27:57.243Z,48765.63
2023-03-24T00:30:25.222Z,48785.22
2023-03-24T00:32:52.422Z,48765.63
2023-03-24T00:35:19.675Z,48793.06
2023-03-24T00:37:46.355Z,48761.72
2023-03-24T00:40:16.526Z,48773.47
2023-03-24T00:42:45.805Z,48759.75
2023-03-24T00:45:15.245Z,48787.19
2023-03-24T00:47:44.615Z,48804.81
2023-03-24T00:50:17.181Z,48787.19
2023-03-24T00:52:48.011Z,48796.97
2023-03-24T00:55:15.935Z,48781.31
2023-03-24T00:57:50.383Z,48765.63
2023-03-24T01:00:24.773Z,48781.31
2023-03-24T01:02:53.745Z,48793.06
2023-03-24T01:05:22.496Z,48798.94
2023-03-24T01:07:52.042Z,48796.97
2023-03-24T01:10:22.062Z,48793.06
2023-03-24T01:12:48.868Z,48804.81
2023-03-24T01:15:17.868Z,48789.13
2023-03-24T01:17:44.287Z,48808.72
2023-03-24T01:20:11.789Z,48789.13
2023-03-24T01:22:40.537Z,48802.84
2023-03-24T01:25:09.406Z,48800.88
2023-03-24T01:27:37.542Z,48828.31
2023-03-24T01:30:07.946Z,48820.47
2023-03-24T01:32:34.517Z,48765.63
2023-03-24T01:35:00.969Z,48812.63
2023-03-24T01:37:27.394Z,48808.72
2023-03-24T01:39:53.885Z,48791.09
2023-03-24T01:42:23.659Z,48765.63
2023-03-24T01:44:51.819Z,48793.06
2023-03-24T01:47:18.413Z,48793.06
2023-03-24T01:49:50.460Z,48808.72
2023-03-24T01:52:24.906Z,48820.47
2023-03-24T01:55:02.550Z,48830.28
2023-03-24T01:57:47.960Z,48851.81
2023-03-24T02:00:16.694Z,48855.75
2023-03-24T02:02:46.867Z,48832.22
2023-03-24T02:05:14.448Z,48820.47
2023-03-24T02:07:50.465Z,48812.63
2023-03-24T02:10:19.443Z,48816.56
2023-03-24T02:12:46.554Z,48844.00
2023-03-24T02:15:15.132Z,48847.91
2023-03-24T02:17:57.127Z,48832.22
2023-03-24T02:20:32.863Z,48879.25
2023-03-24T02:22:59.226Z,48871.41
2023-03-24T02:25:34.872Z,48851.81
2023-03-24T02:28:32.155Z,48861.63
2023-03-24T02:31:35.800Z,48889.03
2023-03-24T02:34:20.787Z,48912.56
2023-03-24T02:37:09.073Z,48879.25
2023-03-24T02:40:02.384Z,48855.75
2023-03-24T02:42:56.710Z,48887.09
2023-03-24T02:45:53.204Z,48879.25
2023-03-24T02:48:48.789Z,48887.09
2023-03-24T02:51:27.177Z,48863.56
2023-03-24T02:54:07.991Z,48914.50
2023-03-24T02:57:10.334Z,48926.25
2023-03-24T03:00:00.363Z,48947.81
2023-03-24T03:02:34.624Z,48914.50
2023-03-24T03:05:17.468Z,48928.22
2023-03-24T03:07:46.721Z,48926.25
2023-03-24T03:10:17.988Z,48967.41
2023-03-24T03:12:49.503Z,48957.59
2023-03-24T03:15:24.548Z,48953.69
2023-03-24T03:18:19.539Z,48981.13
2023-03-24T03:20:51.009Z,48957.59
2023-03-24T03:23:23.526Z,48934.09
2023-03-24T03:25:56.132Z,48969.38
2023-03-24T03:28:25.736Z,48971.31
2023-03-24T03:30:59.810Z,48965.44
2023-03-24T03:33:49.792Z,48953.69
2023-03-24T03:36:35.490Z,48981.13
2023-03-24T03:39:10.779Z,48985.03
2023-03-24T03:41:39.350Z,48983.06
2023-03-24T03:44:06.456Z,48985.03
2023-03-24T03:46:34.811Z,48961.53
2023-03-24T03:49:01.306Z,48990.91
2023-03-24T03:51:28.303Z,48992.88
2023-03-24T03:54:01.518Z,48973.28
2023-03-24T03:56:30.939Z,48961.53
2023-03-24T03:58:58.185Z,49000.72
2023-03-24T04:01:30.040Z,48969.38
2023-03-24T04:04:17.959Z,48977.19
2023-03-24T04:06:53.828Z,48981.13
2023-03-24T04:09:40.971Z,49020.31
2023-03-24T04:12:34.375Z,48992.88
2023-03-24T04:15:15.796Z,48967.41
2023-03-24T04:17:49.272Z,49006.59
2023-03-24T04:20:32.543Z,49008.53
2023-03-24T04:23:14.957Z,49008.53
2023-03-24T04:25:56.872Z,48981.13
2023-03-24T04:28:30.978Z,48992.88
2023-03-24T04:31:18.917Z,48988.94
2023-03-24T04:33:52.639Z,48996.78
2023-03-24T04:36:29.153Z,49008.53
2023-03-24T04:38:57.442Z,48988.94
2023-03-24T04:41:28.158Z,48994.84
2023-03-24T04:43:57.348Z,48992.88
2023-03-24T04:46:24.624Z,49008.53
2023-03-24T04:48:51.207Z,48988.94
2023-03-24T04:51:21.132Z,49004.63
2023-03-24T04:53:48.796Z,48983.06
2023-03-24T04:56:53.476Z,48973.28
2023-03-24T04:59:20.083Z,48953.69
2023-03-24T05:01:49.683Z,48988.94
2023-03-24T05:04:24.828Z,48996.78
2023-03-24T05:06:51.634Z,48988.94
2023-03-24T05:09:22.287Z,48988.94
2023-03-24T05:11:49.541Z,48969.38
2023-03-24T05:14:16.541Z,48985.03
2023-03-24T05:16:43.060Z,48945.84
2023-03-24T05:19:10.027Z,49008.53
2023-03-24T05:21:36.771Z,49014.41
2023-03-24T05:24:03.886Z,48981.13
2023-03-24T05:26:33.162Z,48992.88
2023-03-24T05:29:00.329Z,48979.16
2023-03-24T05:31:27.133Z,48992.88
2023-03-24T05:33:53.821Z,48961.53
2023-03-24T05:36:20.372Z,48953.69
2023-03-24T05:38:47.124Z,48985.03
2023-03-24T05:41:13.538Z,48973.28
2023-03-24T05:43:39.931Z,48981.13
2023-03-24T05:46:06.734Z,48996.78
2023-03-24T05:48:33.226Z,48963.50
2023-03-24T05:50:59.614Z,48965.44
2023-03-24T05:53:26.190Z,48985.03
2023-03-24T05:55:53.695Z,48973.28
2023-03-24T05:58:21.282Z,48987.00
2023-03-24T06:00:47.839Z,48981.13
2023-03-24T06:03:17.286Z,48981.13
2023-03-24T06:05:45.731Z,48977.19
2023-03-24T06:08:12.622Z,48994.84
2023-03-24T06:10:39.147Z,48983.06
2023-03-24T06:13:08.559Z,49004.63
2023-03-24T06:15:35.670Z,48971.31
2023-03-24T06:18:02.231Z,48977.19
2023-03-24T06:20:29.079Z,48983.06
2023-03-24T06:22:59.140Z,48959.56
2023-03-24T06:25:27.713Z,48981.13
2023-03-24T06:27:54.144Z,48977.19
2023-03-24T06:30:20.891Z,48959.56
2023-03-24T06:32:48.733Z,48953.69
2023-03-24T06:35:16.094Z,48981.13
2023-03-24T06:37:42.939Z,48959.56
2023-03-24T06:40:15.280Z,48969.38
2023-03-24T06:42:42.042Z,48969.38
2023-03-24T06:45:09.536Z,48965.44
2023-03-24T06:47:36.148Z,48951.72
2023-03-24T06:50:03.444Z,48961.53
2023-03-24T06:52:29.840Z,48953.69
2023-03-24T06:54:57.533Z,48953.69
2023-03-24T06:57:24.001Z,48957.59
2023-03-24T06:59:50.858Z,48930.19
2023-03-24T07:02:17.471Z,48934.09
2023-03-24T07:04:45.792Z,48930.19
2023-03-24T07:07:52.688Z,48926.25
2023-03-24T07:09:59.060Z,48932.13
2023-03-24T07:12:25.692Z,48922.34
2023-03-24T07:14:52.185Z,48918.44
2023-03-24T07:17:18.944Z,48926.25
2023-03-24T07:19:45.845Z,48924.31
2023-03-24T07:22:12.473Z,48928.22
2023-03-24T07:24:38.864Z,48928.22
2023-03-24T07:27:05.298Z,48926.25
2023-03-24T07:29:31.745Z,48926.25
2023-03-24T07:32:01.132Z,48936.06
2023-03-24T07:34:28.734Z,48916.47
2023-03-24T07:36:56.026Z,48910.59
2023-03-24T07:39:22.458Z,48922.34
2023-03-24T07:41:48.857Z,48918.44
2023-03-24T07:44:15.767Z,48934.09
2023-03-24T07:46:42.213Z,48922.34
2023-03-24T07:49:18.732Z,48928.22
2023-03-24T07:51:45.734Z,48920.38
2023-03-24T07:54:12.156Z,48924.31
2023-03-24T07:56:38.716Z,48922.34
2023-03-24T07:59:05.184Z,48920.38
2023-03-24T08:01:32.096Z,48916.47
2023-03-24T08:03:58.657Z,48906.69
2023-03-24T08:06:25.174Z,48910.59
2023-03-24T08:08:51.583Z,48914.50
2023-03-24T08:11:18.011Z,48906.69
2023-03-24T08:13:44.426Z,48904.72
2023-03-24T08:16:10.953Z,48902.75
2023-03-24T08:18:37.415Z,48896.88
2023-03-24T08:21:04.355Z,48896.88
2023-03-24T08:23:30.918Z,48906.69
2023-03-24T08:25:57.535Z,48898.84
2023-03-24T08:28:23.964Z,48910.59
2023-03-24T08:30:50.816Z,48910.59
2023-03-24T08:33:17.774Z,48912.56
2023-03-24T08:35:46.658Z,48918.44
2023-03-24T08:38:15.676Z,48918.44
2023-03-24T08:40:44.031Z,48922.34
2023-03-24T08:43:15.311Z,48922.34
2023-03-24T08:45:41.828Z,48908.63
2023-03-24T08:48:09.147Z,48900.78
2023-03-24T08:50:39.067Z,48898.84
2023-03-24T08:53:05.720Z,48898.84
2023-03-24T08:55:32.446Z,48900.78
2023-03-24T08:57:58.916Z,48892.97
2023-03-24T09:00:25.728Z,48894.91
2023-03-24T09:02:54.162Z,48898.84
2023-03-24T09:05:36.686Z,48891.00
2023-03-24T09:08:08.235Z,48891.00
2023-03-24T09:10:34.768Z,48894.91
2023-03-24T09:13:01.176Z,48902.75
2023-03-24T09:15:27.694Z,48883.16
2023-03-24T09:17:54.208Z,48873.38
2023-03-24T09:20:20.750Z,48873.38
2023-03-24T09:22:47.413Z,48879.25
2023-03-24T09:25:18.079Z,48881.22
2023-03-24T09:27:44.776Z,48859.66
2023-03-24T09:30:12.650Z,48851.81
2023-03-24T09:32:39.125Z,48840.06
2023-03-24T09:35:08.126Z,48844.00
2023-03-24T09:37:36.250Z,48851.81
2023-03-24T09:40:03.928Z,48857.69
2023-03-24T09:42:35.825Z,48830.28
2023-03-24T09:45:16.767Z,48836.16
2023-03-24T09:47:49.100Z,48844.00
2023-03-24T09:50:25.065Z,48857.69
2023-03-24T09:53:07.114Z,48836.16
2023-03-24T09:55:39.209Z,48832.22
2023-03-24T09:58:08.894Z,48836.16
2023-03-24T10:00:36.534Z,48840.06
2023-03-24T10:03:12.253Z,48840.06
2023-03-24T10:05:48.263Z,48834.19
2023-03-24T10:08:26.479Z,48830.28
2023-03-24T10:11:04.780Z,48838.09
2023-03-24T10:13:42.372Z,48836.16
2023-03-24T10:17:04.591Z,48828.31
2023-03-24T10:19:36.877Z,48834.19
2023-03-24T10:22:21.851Z,48828.31
2023-03-24T10:25:08.581Z,48830.28
2023-03-24T10:27:58.510Z,48834.19
2023-03-24T10:30:36.989Z,48830.28
2023-03-24T10:33:03.986Z,48832.22
2023-03-24T10:35:36.538Z,48834.19
2023-03-24T10:38:13.533Z,48828.31
2023-03-24T10:40:40.744Z,48826.34
2023-03-24T10:43:09.980Z,48826.34
2023-03-24T10:45:39.705Z,48822.44
2023-03-24T10:48:07.528Z,48824.41
2023-03-24T10:50:35.918Z,48828.31
2023-03-24T10:53:10.386Z,48828.31
2023-03-24T10:55:39.694Z,48820.47
2023-03-24T10:58:19.699Z,48830.28
2023-03-24T11:00:47.523Z,48832.22
2023-03-24T11:03:27.531Z,48826.34
2023-03-24T11:06:00.146Z,48840.06
2023-03-24T11:08:29.387Z,48828.31
2023-03-24T11:10:55.815Z,48844.00
2023-03-24T11:13:33.483Z,48853.78
2023-03-24T11:16:30.184Z,48861.63
2023-03-24T11:18:57.791Z,48851.81
2023-03-24T11:21:24.848Z,48851.81
2023-03-24T11:23:51.664Z,48855.75
2023-03-24T11:26:22.690Z,48859.66
2023-03-24T11:28:55.896Z,48845.94
2023-03-24T11:31:30.619Z,48845.94
2023-03-24T11:33:58.772Z,48847.91
2023-03-24T11:36:31.161Z,48847.91
2023-03-24T11:39:17.368Z,48847.91
2023-03-24T11:41:52.051Z,48851.81
2023-03-24T11:44:22.411Z,48871.41
2023-03-24T11:47:08.736Z,48883.16
2023-03-24T11:49:44.779Z,48894.91
2023-03-24T11:52:24.129Z,48908.63
2023-03-24T11:54:51.090Z,48926.25
2023-03-24T11:57:40.852Z,48922.34
2023-03-24T12:00:25.259Z,48912.56
2023-03-24T12:03:04.332Z,48926.25
2023-03-24T12:05:41.590Z,48926.25
2023-03-24T12:08:17.661Z,48938.03
2023-03-24T12:10:58.992Z,48957.59
2023-03-24T12:13:43.985Z,48957.59
2023-03-24T12:16:28.753Z,48953.69
2023-03-24T12:19:36.395Z,48963.50
2023-03-24T12:22:17.114Z,48971.31
2023-03-24T12:24:50.048Z,48977.19
2023-03-24T12:27:31.130Z,48971.31
2023-03-24T12:30:02.227Z,48951.72
2023-03-24T12:32:41.451Z,48992.88
2023-03-24T12:35:54.998Z,48996.78
2023-03-24T12:38:31.816Z,48992.88
2023-03-24T12:41:13.238Z,49028.13
2023-03-24T12:43:48.164Z,49024.22
2023-03-24T12:46:46.642Z,49035.97
2023-03-24T12:49:26.554Z,48992.88
2023-03-24T12:52:17.551Z,49018.34
2023-03-24T12:55:14.281Z,49032.06
2023-03-24T12:57:57.809Z,49039.88
2023-03-24T13:00:30.947Z,49020.31
2023-03-24T13:03:21.776Z,49051.66
2023-03-24T13:05:59.787Z,49016.38
2023-03-24T13:08:32.142Z,49032.06
2023-03-24T13:11:13.208Z,49055.56
2023-03-24T13:13:44.743Z,49043.81
2023-03-24T13:16:18.424Z,49028.13
2023-03-24T13:18:50.319Z,49035.97
2023-03-24T13:21:17.631Z,49045.78
2023-03-24T13:23:47.262Z,49024.22
2023-03-24T13:26:23.352Z,49028.13
2023-03-24T13:29:32.943Z,49034.00
2023-03-24T13:32:29.014Z,49028.13
2023-03-24T13:35:19.676Z,49034.00
2023-03-24T13:37:51.563Z,49055.56
2023-03-24T13:40:25.390Z,49067.31
2023-03-24T13:42:55.621Z,49075.16
2023-03-24T13:45:51.960Z,49032.06
2023-03-24T13:48:33.341Z,48996.78
2023-03-24T13:51:25.833Z,49020.31
2023-03-24T13:53:57.161Z,48987.00
2023-03-24T13:56:37.693Z,48939.97
2023-03-24T13:59:07.179Z,48965.44
2023-03-24T14:01:38.750Z,48965.44
2023-03-24T14:04:25.309Z,48934.09
2023-03-24T14:06:57.760Z,48949.78
2023-03-24T14:09:32.923Z,48938.03
2023-03-24T14:11:59.637Z,48908.63
2023-03-24T14:14:27.369Z,48918.44
2023-03-24T14:17:05.828Z,48883.16
2023-03-24T14:19:39.294Z,48891.00
2023-03-24T14:22:36.876Z,48859.66
2023-03-24T14:25:15.555Z,48881.22
2023-03-24T14:27:44.267Z,48863.56
2023-03-24T14:30:11.003Z,48871.41
2023-03-24T14:32:40.961Z,48912.56
2023-03-24T14:35:26.043Z,48847.91
2023-03-24T14:37:57.448Z,48894.91
2023-03-24T14:40:57.494Z,48861.63
2023-03-24T14:43:29.263Z,48879.25
2023-03-24T14:46:41.923Z,48879.25
2023-03-24T14:49:29.466Z,48869.44
2023-03-24T14:52:10.721Z,48855.75
2023-03-24T14:54:43.999Z,48857.69
2023-03-24T14:57:20.208Z,48863.56
2023-03-24T14:59:58.544Z,48859.66
2023-03-24T15:02:39.578Z,48832.22
2023-03-24T15:05:23.482Z,48822.44
2023-03-24T15:08:21.033Z,48855.75
2023-03-24T15:11:08.193Z,48885.13
2023-03-24T15:13:41.545Z,48849.88
2023-03-24T15:16:17.562Z,48836.16
2023-03-24T15:18:59.989Z,48832.22
2023-03-24T15:22:05.827Z,48867.50
2023-03-24T15:24:37.459Z,48836.16
2023-03-24T15:27:06.991Z,48855.75
2023-03-24T15:29:40.712Z,48840.06
2023-03-24T15:32:15.396Z,48830.28
2023-03-24T15:34:46.556Z,48836.16
2023-03-24T15:37:41.753Z,48847.91
2023-03-24T15:40:31.066Z,48853.78
2023-03-24T15:43:00.300Z,48830.28
2023-03-24T15:45:28.425Z,48793.06
2023-03-24T15:47:56.567Z,48804.81
2023-03-24T15:50:40.902Z,48826.34
2023-03-24T15:53:07.247Z,48840.06
2023-03-24T15:55:36.903Z,48840.06
2023-03-24T15:58:26.726Z,48855.75
2023-03-24T16:00:57.207Z,48828.31
2023-03-24T16:03:27.724Z,48845.94
2023-03-24T16:05:56.863Z,48853.78
2023-03-24T16:08:27.545Z,48871.41
2023-03-24T16:11:07.716Z,48883.16
2023-03-24T16:13:34.686Z,48871.41
2023-03-24T16:16:07.150Z,48879.25
2023-03-24T16:18:36.519Z,48871.41
2023-03-24T16:21:27.083Z,48851.81
2023-03-24T16:23:55.655Z,48859.66
2023-03-24T16:26:24.981Z,48879.25
2023-03-24T16:28:52.821Z,48867.50
2023-03-24T16:31:33.756Z,48871.41
2023-03-24T16:34:00.275Z,48871.41
2023-03-24T16:36:27.008Z,48840.06
2023-03-24T16:38:55.665Z,48863.56
2023-03-24T16:41:22.911Z,48898.84
2023-03-24T16:43:49.420Z,48879.25
2023-03-24T16:46:26.286Z,48859.66
2023-03-24T16:48:53.736Z,48863.56
2023-03-24T16:51:20.305Z,48855.75
2023-03-24T16:53:46.944Z,48871.41
2023-03-24T16:56:15.748Z,48889.03
2023-03-24T16:58:42.197Z,48881.22
2023-03-24T17:01:27.149Z,48898.84
2023-03-24T17:03:56.180Z,48902.75
2023-03-24T17:06:24.183Z,48865.53
2023-03-24T17:08:51.137Z,48881.22
2023-03-24T17:11:23.779Z,48861.63
2023-03-24T17:13:51.451Z,48863.56
2023-03-24T17:16:17.877Z,48859.66
2023-03-24T17:18:44.291Z,48875.34
2023-03-24T17:21:16.889Z,48916.47
2023-03-24T17:23:46.766Z,48985.03
2023-03-24T17:26:13.211Z,48963.50
2023-03-24T17:28:40.208Z,48975.25
2023-03-24T17:31:06.755Z,48981.13
2023-03-24T17:33:33.630Z,48957.59
2023-03-24T17:36:00.222Z,49004.63
2023-03-24T17:38:27.021Z,48985.03
2023-03-24T17:41:00.937Z,48934.09
2023-03-24T17:43:27.650Z,48900.78
2023-03-24T17:46:01.497Z,48871.41
2023-03-24T17:48:27.977Z,48861.63
2023-03-24T17:50:56.053Z,48842.03
2023-03-24T17:53:26.360Z,48891.00
2023-03-24T17:55:58.858Z,48898.84
2023-03-24T17:58:30.219Z,48844.00
2023-03-24T18:00:58.301Z,48847.91
2023-03-24T18:03:26.189Z,48867.50
2023-03-24T18:05:52.589Z,48855.75
2023-03-24T18:08:19.082Z,48812.63
2023-03-24T18:10:46.216Z,48845.94
2023-03-24T18:13:15.128Z,48828.31
2023-03-24T18:15:42.807Z,48832.22
2023-03-24T18:18:09.711Z,48816.56
2023-03-24T18:20:36.636Z,48816.56
2023-03-24T18:23:03.078Z,48816.56
2023-03-24T18:25:29.471Z,48804.81
2023-03-24T18:27:56.188Z,48810.69
2023-03-24T18:30:22.750Z,48814.59
2023-03-24T18:32:49.458Z,48832.22
2023-03-24T18:35:18.810Z,48838.09
2023-03-24T18:37:45.455Z,48855.75
2023-03-24T18:40:12.636Z,48859.66
2023-03-24T18:42:39.075Z,48836.16
2023-03-24T18:45:07.064Z,48847.91
2023-03-24T18:47:33.855Z,48840.06
2023-03-24T18:50:00.728Z,48824.41
2023-03-24T18:52:27.359Z,48828.31
2023-03-24T18:54:54.167Z,48836.16
2023-03-24T18:57:21.304Z,48844.00
2023-03-24T18:59:47.780Z,48808.72
2023-03-24T19:02:15.482Z,48861.63
2023-03-24T19:04:43.223Z,48836.16
2023-03-24T19:07:14.162Z,48842.03
2023-03-24T19:09:44.136Z,48832.22
2023-03-24T19:12:10.534Z,48885.13
2023-03-24T19:14:37.099Z,48844.00
2023-03-24T19:17:03.532Z,48861.63
2023-03-24T19:19:31.858Z,48826.34
2023-03-24T19:21:58.758Z,48851.81
2023-03-24T19:24:26.333Z,48867.50
2023-03-24T19:26:53.950Z,48851.81
2023-03-24T19:29:21.899Z,48894.91
2023-03-24T19:31:49.618Z,48867.50
2023-03-24T19:34:17.653Z,48918.44
2023-03-24T19:36:45.959Z,48928.22
2023-03-24T19:39:13.993Z,48934.09
2023-03-24T19:41:41.094Z,48949.78
2023-03-24T19:44:07.536Z,48902.75
2023-03-24T19:46:34.033Z,48906.69
2023-03-24T19:49:00.549Z,48924.31
2023-03-24T19:51:26.928Z,48930.19
2023-03-24T19:53:53.308Z,48891.00
2023-03-24T19:56:20.741Z,48922.34
2023-03-24T19:58:47.624Z,48918.44
2023-03-24T20:01:14.133Z,48894.91
2023-03-24T20:03:40.670Z,48898.84
2023-03-24T20:06:10.816Z,48926.25
2023-03-24T20:08:38.407Z,48889.03
2023-03-24T20:11:10.575Z,48918.44
2023-03-24T20:13:37.011Z,48930.19
2023-03-24T20:16:03.630Z,48926.25
2023-03-24T20:18:30.255Z,48902.75
2023-03-24T20:20:57.626Z,48953.69
2023-03-24T20:23:24.010Z,48926.25
2023-03-24T20:25:50.767Z,48959.56
2023-03-24T20:28:18.774Z,48934.09
2023-03-24T20:30:46.021Z,48941.94
2023-03-24T20:33:13.238Z,48941.94
2023-03-24T20:35:39.841Z,48930.19
2023-03-24T20:38:06.336Z,48953.69
2023-03-24T20:40:32.739Z,48961.53
2023-03-24T20:42:59.177Z,48953.69
2023-03-24T20:45:26.642Z,48932.13
2023-03-24T20:47:53.334Z,48949.78
2023-03-24T20:50:20.037Z,48981.13
2023-03-24T20:52:47.475Z,48981.13
2023-03-24T20:55:14.545Z,48985.03
2023-03-24T20:57:41.388Z,48975.25
2023-03-24T21:00:13.277Z,48949.78
2023-03-24T21:02:43.983Z,48939.97
2023-03-24T21:05:10.872Z,48969.38
2023-03-24T21:07:38.264Z,48945.84
2023-03-24T21:10:06.452Z,48981.13
2023-03-24T21:12:33.990Z,48934.09
2023-03-24T21:15:00.488Z,48953.69
2023-03-24T21:17:32.073Z,48965.44
2023-03-24T21:20:13.577Z,48910.59
2023-03-24T21:22:56.125Z,48949.78
2023-03-24T21:25:28.970Z,48959.56
2023-03-24T21:27:56.643Z,48943.91
2023-03-24T21:30:25.509Z,48955.66
2023-03-24T21:32:53.955Z,48987.00
2023-03-24T21:35:21.869Z,48969.38
2023-03-24T21:37:48.922Z,48983.06
2023-03-24T21:40:18.556Z,48975.25
2023-03-24T21:42:45.779Z,48985.03
2023-03-24T21:45:23.173Z,48988.94
2023-03-24T21:47:50.121Z,49004.63
2023-03-24T21:50:22.709Z,49012.47
2023-03-24T21:52:50.540Z,48987.00
2023-03-24T21:55:17.126Z,49004.63
2023-03-24T21:57:45.616Z,48987.00
2023-03-24T22:00:15.086Z,48988.94
2023-03-24T22:02:45.525Z,48977.19
2023-03-24T22:05:13.945Z,48996.78
2023-03-24T22:07:41.638Z,48977.19
2023-03-24T22:10:09.794Z,48953.69
2023-03-24T22:12:36.297Z,48947.81
2023-03-24T22:15:02.774Z,48996.78
2023-03-24T22:17:29.584Z,48967.41
2023-03-24T22:19:55.970Z,48953.69
2023-03-24T22:22:22.587Z,48961.53
2023-03-24T22:24:48.952Z,48957.59
2023-03-24T22:27:16.724Z,48941.94
2023-03-24T22:29:43.098Z,48985.03
2023-03-24T22:32:09.531Z,48938.03
2023-03-24T22:34:36.078Z,48953.69
2023-03-24T22:37:02.819Z,48912.56
2023-03-24T22:39:29.218Z,48914.50
2023-03-24T22:41:57.010Z,48932.13
2023-03-24T22:44:23.385Z,48906.69
2023-03-24T22:46:50.187Z,48910.59
2023-03-24T22:49:16.712Z,48934.09
2023-03-24T22:51:43.180Z,48922.34
2023-03-24T22:54:09.667Z,48912.56
2023-03-24T22:56:36.458Z,48906.69
2023-03-24T22:59:03.094Z,48916.47
2023-03-24T23:01:29.802Z,48914.50
2023-03-24T23:03:56.259Z,48881.22
2023-03-24T23:06:22.624Z,48883.16
2023-03-24T23:08:50.156Z,48883.16
2023-03-24T23:11:16.564Z,48914.50
2023-03-24T23:13:42.965Z,48863.56
2023-03-24T23:16:09.573Z,48918.44
2023-03-24T23:18:37.096Z,48891.00
2023-03-24T23:21:12.327Z,48863.56
2023-03-24T23:23:41.373Z,48867.50
2023-03-24T23:26:13.849Z,48892.97
2023-03-24T23:28:54.209Z,48863.56
2023-03-24T23:31:24.678Z,48879.25
2023-03-24T23:33:54.350Z,48836.16
2023-03-24T23:36:20.796Z,48877.28
2023-03-24T23:38:50.689Z,48879.25
2023-03-24T23:41:17.643Z,48859.66
2023-03-24T23:43:47.892Z,48879.25
2023-03-24T23:46:14.621Z,48851.81
2023-03-24T23:48:41.224Z,48847.91
2023-03-24T23:51:07.955Z,48859.66
2023-03-24T23:53:36.226Z,48857.69
2023-03-24T23:56:08.907Z,48863.56
2023-03-24T23:58:37.873Z,48828.31
